Etusivu
METAR-TAF:

METAR-TAF

Lentoasemat :

John H. Batten Airport

Racine, Wisconsin, Yhdysvallat

Leveyspiiri: 42-45-31N, Pituuspiiri: 087-49-04W, korkeus merenpinnasta: 205 m

Tämänhetkinen sää

Tämä raportti tehtiin 7 minuuttia sitten, kello 14.53 UTC
Tuuli 11 kn etelästä/kaakosta puuskistuen 21 kn:hen
Lämpötila 10°C
Kosteus 93%
Ilmanpaine 1011 hPa
Näkyvyys: 11.3 km
Pilvistä 300 ft:n korkeudessa

METAR: KRAC 221453Z AUTO 15011G21KT 7SM OVC003 10/09 A2986 RMK AO2 SLP113 T01000089 58010

Aika: 10:00 (15:00 UTC)


TAF: puuttuu

Säähavainnot ja -ennusteet yli 4000 lentoasemalta (METAR- ja TAF-raportit).

Käytössä olevat sääasemat on merkitty karttaan keltaisilla ja punaisilla pisteillä.

Aseta hiiri pisteen päälle nähdäksesi sääaseman nimen.

Klikkaa sitten nähdäksesi säähavainnot ja -ennusteet.

Kartan vaihtaminen: klikkaa mustalla rastilla varustettuja vihreitä pisteitä, niin voit zoomata sisään; viivalla varustettua vihreää pistettä, niin voit zoomata ulos tai vihreitä nuolia, niin pääset viereisille kartoille.


METAR-TAF: